sensor_id;sensor_type;location;lat;lon;timestamp;temperature;humidity
11387;DHT22;5748;53.102;8.456;2023-07-31T00:01:32;20.00;63.40
11387;DHT22;5748;53.102;8.456;2023-07-31T00:03:59;20.10;63.50
11387;DHT22;5748;53.102;8.456;2023-07-31T00:06:26;20.00;63.50
11387;DHT22;5748;53.102;8.456;2023-07-31T00:08:53;20.00;63.60
11387;DHT22;5748;53.102;8.456;2023-07-31T00:11:20;20.10;63.70
11387;DHT22;5748;53.102;8.456;2023-07-31T00:13:47;20.00;63.50
11387;DHT22;5748;53.102;8.456;2023-07-31T00:16:14;20.20;64.10
11387;DHT22;5748;53.102;8.456;2023-07-31T00:18:41;20.00;63.70
11387;DHT22;5748;53.102;8.456;2023-07-31T00:21:09;20.00;63.20
11387;DHT22;5748;53.102;8.456;2023-07-31T00:23:36;20.00;63.70
11387;DHT22;5748;53.102;8.456;2023-07-31T00:26:03;20.00;63.80
11387;DHT22;5748;53.102;8.456;2023-07-31T00:28:30;20.60;64.40
11387;DHT22;5748;53.102;8.456;2023-07-31T00:30:56;20.00;63.30
11387;DHT22;5748;53.102;8.456;2023-07-31T00:33:23;20.00;63.80
11387;DHT22;5748;53.102;8.456;2023-07-31T00:35:50;20.10;63.90
11387;DHT22;5748;53.102;8.456;2023-07-31T00:38:19;20.00;63.90
11387;DHT22;5748;53.102;8.456;2023-07-31T00:40:45;20.00;64.20
11387;DHT22;5748;53.102;8.456;2023-07-31T00:43:12;20.00;63.90
11387;DHT22;5748;53.102;8.456;2023-07-31T00:45:39;20.00;64.10
11387;DHT22;5748;53.102;8.456;2023-07-31T00:48:06;20.20;64.30
11387;DHT22;5748;53.102;8.456;2023-07-31T00:50:35;20.00;63.40
11387;DHT22;5748;53.102;8.456;2023-07-31T00:53:02;20.80;65.00
11387;DHT22;5748;53.102;8.456;2023-07-31T00:55:30;20.10;64.40
11387;DHT22;5748;53.102;8.456;2023-07-31T00:57:57;20.00;64.10
11387;DHT22;5748;53.102;8.456;2023-07-31T01:00:24;19.90;63.40
11387;DHT22;5748;53.102;8.456;2023-07-31T01:02:51;20.00;64.10
11387;DHT22;5748;53.102;8.456;2023-07-31T01:05:25;20.00;63.60
11387;DHT22;5748;53.102;8.456;2023-07-31T01:08:00;19.90;64.50
11387;DHT22;5748;53.102;8.456;2023-07-31T01:10:40;20.00;64.30
11387;DHT22;5748;53.102;8.456;2023-07-31T01:13:17;19.90;64.40
11387;DHT22;5748;53.102;8.456;2023-07-31T01:15:44;19.90;64.20
11387;DHT22;5748;53.102;8.456;2023-07-31T01:18:11;19.90;64.30
11387;DHT22;5748;53.102;8.456;2023-07-31T01:20:42;20.00;64.70
11387;DHT22;5748;53.102;8.456;2023-07-31T01:23:23;19.90;64.70
11387;DHT22;5748;53.102;8.456;2023-07-31T01:26:11;19.90;64.90
11387;DHT22;5748;53.102;8.456;2023-07-31T01:28:46;19.90;65.00
11387;DHT22;5748;53.102;8.456;2023-07-31T01:31:20;19.90;64.80
11387;DHT22;5748;53.102;8.456;2023-07-31T01:33:49;19.90;64.60
11387;DHT22;5748;53.102;8.456;2023-07-31T01:36:17;19.90;64.70
11387;DHT22;5748;53.102;8.456;2023-07-31T01:38:44;19.90;64.70
11387;DHT22;5748;53.102;8.456;2023-07-31T01:41:12;19.90;64.50
11387;DHT22;5748;53.102;8.456;2023-07-31T01:43:39;20.00;65.10
11387;DHT22;5748;53.102;8.456;2023-07-31T01:46:06;21.60;66.70
11387;DHT22;5748;53.102;8.456;2023-07-31T01:48:33;22.40;67.50
11387;DHT22;5748;53.102;8.456;2023-07-31T01:51:02;19.80;64.40
11387;DHT22;5748;53.102;8.456;2023-07-31T01:53:29;19.80;65.00
11387;DHT22;5748;53.102;8.456;2023-07-31T01:55:57;19.80;65.10
11387;DHT22;5748;53.102;8.456;2023-07-31T01:58:25;19.70;65.00
11387;DHT22;5748;53.102;8.456;2023-07-31T02:00:52;19.70;65.10
11387;DHT22;5748;53.102;8.456;2023-07-31T02:03:19;19.70;65.20
11387;DHT22;5748;53.102;8.456;2023-07-31T02:05:46;19.70;65.00
11387;DHT22;5748;53.102;8.456;2023-07-31T02:08:14;19.60;65.20
11387;DHT22;5748;53.102;8.456;2023-07-31T02:10:41;19.60;65.20
11387;DHT22;5748;53.102;8.456;2023-07-31T02:13:08;19.50;65.30
11387;DHT22;5748;53.102;8.456;2023-07-31T02:15:37;19.40;65.20
11387;DHT22;5748;53.102;8.456;2023-07-31T02:18:04;19.40;65.50
11387;DHT22;5748;53.102;8.456;2023-07-31T02:20:33;19.40;65.50
11387;DHT22;5748;53.102;8.456;2023-07-31T02:23:01;19.30;65.80
11387;DHT22;5748;53.102;8.456;2023-07-31T02:25:28;19.30;65.80
11387;DHT22;5748;53.102;8.456;2023-07-31T02:27:55;19.30;65.80
11387;DHT22;5748;53.102;8.456;2023-07-31T02:30:22;19.20;65.90
11387;DHT22;5748;53.102;8.456;2023-07-31T02:32:50;19.10;65.80
11387;DHT22;5748;53.102;8.456;2023-07-31T02:35:17;19.20;66.30
11387;DHT22;5748;53.102;8.456;2023-07-31T02:37:44;19.10;66.20
11387;DHT22;5748;53.102;8.456;2023-07-31T02:40:11;19.10;66.00
11387;DHT22;5748;53.102;8.456;2023-07-31T02:42:38;19.10;66.10
11387;DHT22;5748;53.102;8.456;2023-07-31T02:45:06;19.10;66.10
11387;DHT22;5748;53.102;8.456;2023-07-31T02:47:34;19.10;66.40
11387;DHT22;5748;53.102;8.456;2023-07-31T02:50:02;19.10;66.50
11387;DHT22;5748;53.102;8.456;2023-07-31T02:52:30;19.10;66.80
11387;DHT22;5748;53.102;8.456;2023-07-31T02:54:57;19.10;66.50
11387;DHT22;5748;53.102;8.456;2023-07-31T02:57:24;19.20;66.70
11387;DHT22;5748;53.102;8.456;2023-07-31T02:59:51;19.10;66.60
11387;DHT22;5748;53.102;8.456;2023-07-31T03:02:18;19.10;66.70
11387;DHT22;5748;53.102;8.456;2023-07-31T03:04:45;19.10;66.90
11387;DHT22;5748;53.102;8.456;2023-07-31T03:07:13;19.10;66.70
11387;DHT22;5748;53.102;8.456;2023-07-31T03:09:40;19.10;66.90
11387;DHT22;5748;53.102;8.456;2023-07-31T03:12:08;19.10;66.80
11387;DHT22;5748;53.102;8.456;2023-07-31T03:14:35;19.10;67.00
11387;DHT22;5748;53.102;8.456;2023-07-31T03:17:02;19.00;66.90
11387;DHT22;5748;53.102;8.456;2023-07-31T03:19:30;19.10;67.20
11387;DHT22;5748;53.102;8.456;2023-07-31T03:21:58;19.10;67.10
11387;DHT22;5748;53.102;8.456;2023-07-31T03:24:27;19.10;67.00
11387;DHT22;5748;53.102;8.456;2023-07-31T03:26:55;19.10;67.20
11387;DHT22;5748;53.102;8.456;2023-07-31T03:29:22;19.10;67.20
11387;DHT22;5748;53.102;8.456;2023-07-31T03:31:49;19.10;67.20
11387;DHT22;5748;53.102;8.456;2023-07-31T03:34:15;19.10;67.40
11387;DHT22;5748;53.102;8.456;2023-07-31T03:36:42;19.20;67.30
11387;DHT22;5748;53.102;8.456;2023-07-31T03:39:09;19.20;67.30
11387;DHT22;5748;53.102;8.456;2023-07-31T03:41:38;19.20;67.30
11387;DHT22;5748;53.102;8.456;2023-07-31T03:44:05;19.60;67.80
11387;DHT22;5748;53.102;8.456;2023-07-31T03:46:31;19.20;67.40
11387;DHT22;5748;53.102;8.456;2023-07-31T03:48:59;19.10;67.40
11387;DHT22;5748;53.102;8.456;2023-07-31T03:51:26;19.20;67.50
11387;DHT22;5748;53.102;8.456;2023-07-31T03:53:53;19.20;67.50
11387;DHT22;5748;53.102;8.456;2023-07-31T03:56:20;19.30;67.70
11387;DHT22;5748;53.102;8.456;2023-07-31T03:58:48;19.30;67.50
11387;DHT22;5748;53.102;8.456;2023-07-31T04:01:15;19.30;67.30
11387;DHT22;5748;53.102;8.456;2023-07-31T04:03:42;19.30;67.50
11387;DHT22;5748;53.102;8.456;2023-07-31T04:06:09;19.30;67.80
11387;DHT22;5748;53.102;8.456;2023-07-31T04:08:36;19.40;67.80
11387;DHT22;5748;53.102;8.456;2023-07-31T04:11:03;19.30;67.20
11387;DHT22;5748;53.102;8.456;2023-07-31T04:13:30;19.30;67.90
11387;DHT22;5748;53.102;8.456;2023-07-31T04:15:58;19.30;67.70
11387;DHT22;5748;53.102;8.456;2023-07-31T04:18:25;19.30;67.80
11387;DHT22;5748;53.102;8.456;2023-07-31T04:20:52;19.30;67.80
11387;DHT22;5748;53.102;8.456;2023-07-31T04:23:19;19.30;67.80
11387;DHT22;5748;53.102;8.456;2023-07-31T04:25:46;19.30;67.80
11387;DHT22;5748;53.102;8.456;2023-07-31T04:28:13;19.30;67.80
11387;DHT22;5748;53.102;8.456;2023-07-31T04:30:40;19.40;68.00
11387;DHT22;5748;53.102;8.456;2023-07-31T04:33:08;21.10;69.90
11387;DHT22;5748;53.102;8.456;2023-07-31T04:35:35;19.20;67.90
11387;DHT22;5748;53.102;8.456;2023-07-31T04:38:02;19.10;68.10
11387;DHT22;5748;53.102;8.456;2023-07-31T04:40:29;19.20;67.90
11387;DHT22;5748;53.102;8.456;2023-07-31T04:42:56;19.20;68.00
11387;DHT22;5748;53.102;8.456;2023-07-31T04:45:23;19.70;68.60
11387;DHT22;5748;53.102;8.456;2023-07-31T04:47:50;19.20;68.20
11387;DHT22;5748;53.102;8.456;2023-07-31T04:50:18;19.20;68.20
11387;DHT22;5748;53.102;8.456;2023-07-31T04:52:45;19.20;68.40
11387;DHT22;5748;53.102;8.456;2023-07-31T04:55:12;19.20;68.50
11387;DHT22;5748;53.102;8.456;2023-07-31T04:57:39;19.20;68.40
11387;DHT22;5748;53.102;8.456;2023-07-31T05:00:07;19.20;68.40
11387;DHT22;5748;53.102;8.456;2023-07-31T05:02:34;19.20;68.50
11387;DHT22;5748;53.102;8.456;2023-07-31T05:05:01;19.30;68.50
11387;DHT22;5748;53.102;8.456;2023-07-31T05:07:30;19.30;68.60
11387;DHT22;5748;53.102;8.456;2023-07-31T05:09:56;19.30;68.70
11387;DHT22;5748;53.102;8.456;2023-07-31T05:12:23;19.30;68.60
11387;DHT22;5748;53.102;8.456;2023-07-31T05:14:50;19.30;68.60
11387;DHT22;5748;53.102;8.456;2023-07-31T05:17:17;19.30;68.70
11387;DHT22;5748;53.102;8.456;2023-07-31T05:19:44;19.30;68.70
11387;DHT22;5748;53.102;8.456;2023-07-31T05:22:11;19.40;68.90
11387;DHT22;5748;53.102;8.456;2023-07-31T05:24:39;19.40;68.90
11387;DHT22;5748;53.102;8.456;2023-07-31T05:27:06;19.40;68.90
11387;DHT22;5748;53.102;8.456;2023-07-31T05:29:35;19.40;69.10
11387;DHT22;5748;53.102;8.456;2023-07-31T05:32:02;19.40;69.20
11387;DHT22;5748;53.102;8.456;2023-07-31T05:34:29;19.40;69.40
11387;DHT22;5748;53.102;8.456;2023-07-31T05:36:56;19.50;69.40
11387;DHT22;5748;53.102;8.456;2023-07-31T05:39:23;19.50;69.20
11387;DHT22;5748;53.102;8.456;2023-07-31T05:41:51;19.50;69.30
11387;DHT22;5748;53.102;8.456;2023-07-31T05:44:18;19.60;69.30
11387;DHT22;5748;53.102;8.456;2023-07-31T05:46:45;19.50;69.20
11387;DHT22;5748;53.102;8.456;2023-07-31T05:49:12;19.60;69.20
11387;DHT22;5748;53.102;8.456;2023-07-31T05:51:39;19.60;69.20
11387;DHT22;5748;53.102;8.456;2023-07-31T05:54:06;19.60;69.30
11387;DHT22;5748;53.102;8.456;2023-07-31T05:56:33;19.70;69.40
11387;DHT22;5748;53.102;8.456;2023-07-31T05:59:01;19.70;69.30
11387;DHT22;5748;53.102;8.456;2023-07-31T06:01:28;19.70;69.50
11387;DHT22;5748;53.102;8.456;2023-07-31T06:03:55;19.70;69.50
11387;DHT22;5748;53.102;8.456;2023-07-31T06:06:22;19.80;69.60
11387;DHT22;5748;53.102;8.456;2023-07-31T06:08:49;19.80;69.50
11387;DHT22;5748;53.102;8.456;2023-07-31T06:11:16;19.80;69.80
11387;DHT22;5748;53.102;8.456;2023-07-31T06:13:43;19.80;69.60
11387;DHT22;5748;53.102;8.456;2023-07-31T06:16:13;19.90;69.60
11387;DHT22;5748;53.102;8.456;2023-07-31T06:18:41;19.90;69.80
11387;DHT22;5748;53.102;8.456;2023-07-31T06:21:08;19.90;69.30
11387;DHT22;5748;53.102;8.456;2023-07-31T06:23:35;19.90;69.70
11387;DHT22;5748;53.102;8.456;2023-07-31T06:26:02;19.90;69.70
11387;DHT22;5748;53.102;8.456;2023-07-31T06:28:29;19.90;69.70
11387;DHT22;5748;53.102;8.456;2023-07-31T06:30:57;20.00;69.90
11387;DHT22;5748;53.102;8.456;2023-07-31T06:33:25;20.00;69.90
11387;DHT22;5748;53.102;8.456;2023-07-31T06:35:52;20.00;69.90
11387;DHT22;5748;53.102;8.456;2023-07-31T06:38:22;20.00;69.70
11387;DHT22;5748;53.102;8.456;2023-07-31T06:40:51;20.10;70.00
11387;DHT22;5748;53.102;8.456;2023-07-31T06:43:18;20.10;69.80
11387;DHT22;5748;53.102;8.456;2023-07-31T06:45:44;20.10;69.80
11387;DHT22;5748;53.102;8.456;2023-07-31T06:48:13;20.10;69.80
11387;DHT22;5748;53.102;8.456;2023-07-31T06:50:42;20.10;69.80
11387;DHT22;5748;53.102;8.456;2023-07-31T06:53:09;20.20;69.90
11387;DHT22;5748;53.102;8.456;2023-07-31T06:55:35;20.10;69.80
11387;DHT22;5748;53.102;8.456;2023-07-31T06:58:02;20.20;69.90
11387;DHT22;5748;53.102;8.456;2023-07-31T07:00:29;20.10;70.00
11387;DHT22;5748;53.102;8.456;2023-07-31T07:02:57;20.20;70.10
11387;DHT22;5748;53.102;8.456;2023-07-31T07:05:24;20.10;70.20
11387;DHT22;5748;53.102;8.456;2023-07-31T07:07:53;20.20;70.10
11387;DHT22;5748;53.102;8.456;2023-07-31T07:10:20;20.20;70.30
11387;DHT22;5748;53.102;8.456;2023-07-31T07:12:47;20.20;70.30
11387;DHT22;5748;53.102;8.456;2023-07-31T07:15:14;20.30;70.40
11387;DHT22;5748;53.102;8.456;2023-07-31T07:17:41;18.80;69.00
11387;DHT22;5748;53.102;8.456;2023-07-31T07:20:08;20.40;70.50
11387;DHT22;5748;53.102;8.456;2023-07-31T07:22:35;20.20;70.70
11387;DHT22;5748;53.102;8.456;2023-07-31T07:25:04;20.30;70.50
11387;DHT22;5748;53.102;8.456;2023-07-31T07:27:32;20.30;70.70
11387;DHT22;5748;53.102;8.456;2023-07-31T07:29:59;20.30;70.60
11387;DHT22;5748;53.102;8.456;2023-07-31T07:32:26;20.30;70.60
11387;DHT22;5748;53.102;8.456;2023-07-31T07:34:53;20.30;70.70
11387;DHT22;5748;53.102;8.456;2023-07-31T07:37:21;20.50;71.00
11387;DHT22;5748;53.102;8.456;2023-07-31T07:39:48;20.40;71.00
11387;DHT22;5748;53.102;8.456;2023-07-31T07:42:17;20.40;70.90
11387;DHT22;5748;53.102;8.456;2023-07-31T07:44:45;20.40;71.00
11387;DHT22;5748;53.102;8.456;2023-07-31T07:47:12;20.90;71.50
11387;DHT22;5748;53.102;8.456;2023-07-31T07:49:39;20.40;71.00
11387;DHT22;5748;53.102;8.456;2023-07-31T07:52:06;20.50;71.10
11387;DHT22;5748;53.102;8.456;2023-07-31T07:54:33;19.60;70.40
11387;DHT22;5748;53.102;8.456;2023-07-31T07:57:00;20.50;71.20
11387;DHT22;5748;53.102;8.456;2023-07-31T07:59:28;20.60;71.30
11387;DHT22;5748;53.102;8.456;2023-07-31T08:01:55;20.70;71.60
11387;DHT22;5748;53.102;8.456;2023-07-31T08:04:23;20.60;71.50
11387;DHT22;5748;53.102;8.456;2023-07-31T08:06:49;20.60;71.50
11387;DHT22;5748;53.102;8.456;2023-07-31T08:09:16;20.60;71.70
11387;DHT22;5748;53.102;8.456;2023-07-31T08:11:43;20.60;72.00
11387;DHT22;5748;53.102;8.456;2023-07-31T08:14:10;20.60;71.80
11387;DHT22;5748;53.102;8.456;2023-07-31T08:16:38;20.70;71.90
11387;DHT22;5748;53.102;8.456;2023-07-31T08:19:05;20.70;71.90
11387;DHT22;5748;53.102;8.456;2023-07-31T08:21:32;20.80;72.00
11387;DHT22;5748;53.102;8.456;2023-07-31T08:23:59;20.80;72.00
11387;DHT22;5748;53.102;8.456;2023-07-31T08:26:26;20.80;72.70
11387;DHT22;5748;53.102;8.456;2023-07-31T08:28:53;20.90;72.00
11387;DHT22;5748;53.102;8.456;2023-07-31T08:31:20;20.90;71.90
11387;DHT22;5748;53.102;8.456;2023-07-31T08:33:48;21.00;71.80
11387;DHT22;5748;53.102;8.456;2023-07-31T08:36:15;20.80;71.80
11387;DHT22;5748;53.102;8.456;2023-07-31T08:38:42;20.90;72.00
11387;DHT22;5748;53.102;8.456;2023-07-31T08:41:09;21.10;72.40
11387;DHT22;5748;53.102;8.456;2023-07-31T08:43:38;21.20;72.60
11387;DHT22;5748;53.102;8.456;2023-07-31T08:46:05;21.30;72.70
11387;DHT22;5748;53.102;8.456;2023-07-31T08:48:32;21.30;72.40
11387;DHT22;5748;53.102;8.456;2023-07-31T08:51:01;21.40;71.70
11387;DHT22;5748;53.102;8.456;2023-07-31T08:53:28;21.40;72.30
11387;DHT22;5748;53.102;8.456;2023-07-31T08:55:56;21.40;72.10
11387;DHT22;5748;53.102;8.456;2023-07-31T08:58:25;21.50;72.20
11387;DHT22;5748;53.102;8.456;2023-07-31T09:00:55;21.50;72.30
11387;DHT22;5748;53.102;8.456;2023-07-31T09:03:23;21.50;72.10
11387;DHT22;5748;53.102;8.456;2023-07-31T09:05:52;21.60;72.00
11387;DHT22;5748;53.102;8.456;2023-07-31T09:08:22;21.50;71.80
11387;DHT22;5748;53.102;8.456;2023-07-31T09:10:49;21.60;71.80
11387;DHT22;5748;53.102;8.456;2023-07-31T09:13:16;21.60;71.70
11387;DHT22;5748;53.102;8.456;2023-07-31T09:15:45;21.60;71.60
11387;DHT22;5748;53.102;8.456;2023-07-31T09:18:12;21.60;71.60
11387;DHT22;5748;53.102;8.456;2023-07-31T09:20:42;21.40;71.20
11387;DHT22;5748;53.102;8.456;2023-07-31T09:23:10;21.50;71.20
11387;DHT22;5748;53.102;8.456;2023-07-31T09:25:43;21.50;71.30
11387;DHT22;5748;53.102;8.456;2023-07-31T09:28:11;21.50;71.50
11387;DHT22;5748;53.102;8.456;2023-07-31T09:30:46;21.50;71.60
11387;DHT22;5748;53.102;8.456;2023-07-31T09:33:14;21.40;71.70
11387;DHT22;5748;53.102;8.456;2023-07-31T09:35:42;21.40;71.70
11387;DHT22;5748;53.102;8.456;2023-07-31T09:38:10;21.40;72.00
11387;DHT22;5748;53.102;8.456;2023-07-31T09:40:40;21.40;72.40
11387;DHT22;5748;53.102;8.456;2023-07-31T09:43:09;21.50;73.10
11387;DHT22;5748;53.102;8.456;2023-07-31T09:45:37;21.60;73.40
11387;DHT22;5748;53.102;8.456;2023-07-31T09:48:07;21.70;73.30
11387;DHT22;5748;53.102;8.456;2023-07-31T09:50:37;21.70;72.90
11387;DHT22;5748;53.102;8.456;2023-07-31T09:53:04;21.90;72.80
11387;DHT22;5748;53.102;8.456;2023-07-31T09:55:33;21.90;72.50
11387;DHT22;5748;53.102;8.456;2023-07-31T09:58:04;22.00;72.50
11387;DHT22;5748;53.102;8.456;2023-07-31T10:00:32;21.90;72.40
11387;DHT22;5748;53.102;8.456;2023-07-31T10:03:01;21.90;72.30
11387;DHT22;5748;53.102;8.456;2023-07-31T10:05:31;22.00;72.40
11387;DHT22;5748;53.102;8.456;2023-07-31T10:08:00;22.00;72.70
11387;DHT22;5748;53.102;8.456;2023-07-31T10:10:28;22.00;72.70
11387;DHT22;5748;53.102;8.456;2023-07-31T10:12:56;22.00;72.80
11387;DHT22;5748;53.102;8.456;2023-07-31T10:15:25;22.10;72.90
11387;DHT22;5748;53.102;8.456;2023-07-31T10:17:54;22.10;72.80
11387;DHT22;5748;53.102;8.456;2023-07-31T10:20:22;22.10;72.80
11387;DHT22;5748;53.102;8.456;2023-07-31T10:22:51;22.20;72.80
11387;DHT22;5748;53.102;8.456;2023-07-31T10:25:19;22.20;72.70
11387;DHT22;5748;53.102;8.456;2023-07-31T10:27:47;22.20;72.50
11387;DHT22;5748;53.102;8.456;2023-07-31T10:30:16;22.20;72.40
11387;DHT22;5748;53.102;8.456;2023-07-31T10:32:46;22.20;72.50
11387;DHT22;5748;53.102;8.456;2023-07-31T10:35:16;22.30;72.60
11387;DHT22;5748;53.102;8.456;2023-07-31T10:37:44;22.20;72.60
11387;DHT22;5748;53.102;8.456;2023-07-31T10:40:18;22.20;72.70
11387;DHT22;5748;53.102;8.456;2023-07-31T10:42:47;22.30;72.80
11387;DHT22;5748;53.102;8.456;2023-07-31T10:45:25;22.30;72.90
11387;DHT22;5748;53.102;8.456;2023-07-31T10:48:01;22.30;73.10
11387;DHT22;5748;53.102;8.456;2023-07-31T10:50:30;22.30;73.00
11387;DHT22;5748;53.102;8.456;2023-07-31T10:52:58;22.50;73.40
11387;DHT22;5748;53.102;8.456;2023-07-31T10:55:31;22.40;73.30
11387;DHT22;5748;53.102;8.456;2023-07-31T10:58:06;22.50;73.60
11387;DHT22;5748;53.102;8.456;2023-07-31T11:00:36;22.60;73.40
11387;DHT22;5748;53.102;8.456;2023-07-31T11:03:07;22.70;73.20
11387;DHT22;5748;53.102;8.456;2023-07-31T11:05:46;22.60;73.10
11387;DHT22;5748;53.102;8.456;2023-07-31T11:08:20;22.70;73.30
11387;DHT22;5748;53.102;8.456;2023-07-31T11:10:50;22.70;73.20
11387;DHT22;5748;53.102;8.456;2023-07-31T11:13:19;22.70;73.20
11387;DHT22;5748;53.102;8.456;2023-07-31T11:15:46;22.90;73.30
11387;DHT22;5748;53.102;8.456;2023-07-31T11:18:14;22.80;73.10
11387;DHT22;5748;53.102;8.456;2023-07-31T11:20:42;22.80;73.00
11387;DHT22;5748;53.102;8.456;2023-07-31T11:23:11;22.80;73.00
11387;DHT22;5748;53.102;8.456;2023-07-31T11:25:39;22.90;73.00
11387;DHT22;5748;53.102;8.456;2023-07-31T11:28:09;22.90;72.90
11387;DHT22;5748;53.102;8.456;2023-07-31T11:30:37;22.90;72.90
11387;DHT22;5748;53.102;8.456;2023-07-31T11:33:05;22.90;72.80
11387;DHT22;5748;53.102;8.456;2023-07-31T11:35:35;22.80;72.80
11387;DHT22;5748;53.102;8.456;2023-07-31T11:38:03;22.90;73.00
11387;DHT22;5748;53.102;8.456;2023-07-31T11:40:30;22.80;73.00
11387;DHT22;5748;53.102;8.456;2023-07-31T11:42:57;22.90;73.10
11387;DHT22;5748;53.102;8.456;2023-07-31T11:45:26;22.80;73.00
11387;DHT22;5748;53.102;8.456;2023-07-31T11:47:55;22.80;73.00
11387;DHT22;5748;53.102;8.456;2023-07-31T11:50:22;22.90;73.10
11387;DHT22;5748;53.102;8.456;2023-07-31T11:52:55;22.80;73.10
11387;DHT22;5748;53.102;8.456;2023-07-31T11:55:24;22.80;73.20
11387;DHT22;5748;53.102;8.456;2023-07-31T11:57:51;22.80;73.20
11387;DHT22;5748;53.102;8.456;2023-07-31T12:00:19;22.80;73.30
11387;DHT22;5748;53.102;8.456;2023-07-31T12:02:47;22.80;73.50
11387;DHT22;5748;53.102;8.456;2023-07-31T12:05:14;22.80;73.50
11387;DHT22;5748;53.102;8.456;2023-07-31T12:07:46;22.90;73.60
11387;DHT22;5748;53.102;8.456;2023-07-31T12:10:28;22.90;73.70
11387;DHT22;5748;53.102;8.456;2023-07-31T12:13:00;22.90;74.00
11387;DHT22;5748;53.102;8.456;2023-07-31T12:15:33;22.90;73.70
11387;DHT22;5748;53.102;8.456;2023-07-31T12:18:04;22.90;73.70
11387;DHT22;5748;53.102;8.456;2023-07-31T12:20:33;22.90;73.90
11387;DHT22;5748;53.102;8.456;2023-07-31T12:23:00;23.00;73.90
11387;DHT22;5748;53.102;8.456;2023-07-31T12:25:32;23.00;73.90
11387;DHT22;5748;53.102;8.456;2023-07-31T12:28:05;23.00;73.90
11387;DHT22;5748;53.102;8.456;2023-07-31T12:30:37;23.00;73.70
11387;DHT22;5748;53.102;8.456;2023-07-31T12:33:06;23.00;73.50
11387;DHT22;5748;53.102;8.456;2023-07-31T12:35:37;23.00;73.60
11387;DHT22;5748;53.102;8.456;2023-07-31T12:38:05;23.00;73.60
11387;DHT22;5748;53.102;8.456;2023-07-31T12:40:33;23.00;73.50
11387;DHT22;5748;53.102;8.456;2023-07-31T12:43:02;23.00;73.60
11387;DHT22;5748;53.102;8.456;2023-07-31T12:45:30;22.90;73.50
11387;DHT22;5748;53.102;8.456;2023-07-31T12:47:57;23.00;73.80
11387;DHT22;5748;53.102;8.456;2023-07-31T12:50:24;22.90;73.80
11387;DHT22;5748;53.102;8.456;2023-07-31T12:52:52;23.00;73.90
11387;DHT22;5748;53.102;8.456;2023-07-31T12:55:19;23.00;73.90
11387;DHT22;5748;53.102;8.456;2023-07-31T12:57:48;23.00;73.90
11387;DHT22;5748;53.102;8.456;2023-07-31T13:00:15;23.10;74.00
11387;DHT22;5748;53.102;8.456;2023-07-31T13:02:42;23.10;73.90
11387;DHT22;5748;53.102;8.456;2023-07-31T13:05:09;23.00;73.60
11387;DHT22;5748;53.102;8.456;2023-07-31T13:07:36;23.10;73.70
11387;DHT22;5748;53.102;8.456;2023-07-31T13:10:04;23.00;73.80
11387;DHT22;5748;53.102;8.456;2023-07-31T13:12:32;23.10;74.10
11387;DHT22;5748;53.102;8.456;2023-07-31T13:15:00;23.10;74.10
11387;DHT22;5748;53.102;8.456;2023-07-31T13:17:27;23.20;74.20
11387;DHT22;5748;53.102;8.456;2023-07-31T13:19:54;23.20;74.10
11387;DHT22;5748;53.102;8.456;2023-07-31T13:22:21;23.10;73.80
11387;DHT22;5748;53.102;8.456;2023-07-31T13:24:48;23.10;73.80
11387;DHT22;5748;53.102;8.456;2023-07-31T13:27:15;23.10;73.90
11387;DHT22;5748;53.102;8.456;2023-07-31T13:29:44;23.00;73.70
11387;DHT22;5748;53.102;8.456;2023-07-31T13:32:12;23.10;74.00
11387;DHT22;5748;53.102;8.456;2023-07-31T13:34:39;23.10;74.00
11387;DHT22;5748;53.102;8.456;2023-07-31T13:37:06;23.00;73.80
11387;DHT22;5748;53.102;8.456;2023-07-31T13:39:34;23.00;73.80
11387;DHT22;5748;53.102;8.456;2023-07-31T13:42:02;23.00;73.90
11387;DHT22;5748;53.102;8.456;2023-07-31T13:44:32;23.00;73.90
11387;DHT22;5748;53.102;8.456;2023-07-31T13:46:59;22.90;73.90
11387;DHT22;5748;53.102;8.456;2023-07-31T13:49:27;22.90;73.90
11387;DHT22;5748;53.102;8.456;2023-07-31T13:51:54;22.90;74.00
11387;DHT22;5748;53.102;8.456;2023-07-31T13:54:22;22.90;74.20
11387;DHT22;5748;53.102;8.456;2023-07-31T13:56:49;22.90;74.20
11387;DHT22;5748;53.102;8.456;2023-07-31T13:59:16;23.10;74.40
11387;DHT22;5748;53.102;8.456;2023-07-31T14:01:43;23.00;74.30
11387;DHT22;5748;53.102;8.456;2023-07-31T14:04:10;23.10;74.50
11387;DHT22;5748;53.102;8.456;2023-07-31T14:06:39;22.90;74.30
11387;DHT22;5748;53.102;8.456;2023-07-31T14:09:06;23.00;74.50
11387;DHT22;5748;53.102;8.456;2023-07-31T14:11:33;23.00;74.40
11387;DHT22;5748;53.102;8.456;2023-07-31T14:14:00;23.00;74.20
11387;DHT22;5748;53.102;8.456;2023-07-31T14:16:28;22.90;74.10
11387;DHT22;5748;53.102;8.456;2023-07-31T14:18:55;23.10;74.30
11387;DHT22;5748;53.102;8.456;2023-07-31T14:21:24;23.00;74.00
11387;DHT22;5748;53.102;8.456;2023-07-31T14:23:52;23.00;73.90
11387;DHT22;5748;53.102;8.456;2023-07-31T14:26:19;23.00;73.90
11387;DHT22;5748;53.102;8.456;2023-07-31T14:28:46;23.00;73.90
11387;DHT22;5748;53.102;8.456;2023-07-31T14:31:13;23.00;73.60
11387;DHT22;5748;53.102;8.456;2023-07-31T14:33:40;23.10;74.20
11387;DHT22;5748;53.102;8.456;2023-07-31T14:36:07;22.90;74.00
11387;DHT22;5748;53.102;8.456;2023-07-31T14:38:34;23.00;74.00
11387;DHT22;5748;53.102;8.456;2023-07-31T14:41:03;22.90;73.40
11387;DHT22;5748;53.102;8.456;2023-07-31T14:43:29;22.90;74.00
11387;DHT22;5748;53.102;8.456;2023-07-31T14:45:57;22.80;73.80
11387;DHT22;5748;53.102;8.456;2023-07-31T14:48:25;22.80;73.80
11387;DHT22;5748;53.102;8.456;2023-07-31T14:50:52;22.70;73.70
11387;DHT22;5748;53.102;8.456;2023-07-31T14:53:19;22.60;73.70
11387;DHT22;5748;53.102;8.456;2023-07-31T14:55:46;22.60;74.00
11387;DHT22;5748;53.102;8.456;2023-07-31T14:58:14;22.60;74.10
11387;DHT22;5748;53.102;8.456;2023-07-31T15:00:42;22.50;74.30
11387;DHT22;5748;53.102;8.456;2023-07-31T15:03:09;22.50;74.60
11387;DHT22;5748;53.102;8.456;2023-07-31T15:05:36;22.50;74.80
11387;DHT22;5748;53.102;8.456;2023-07-31T15:08:03;22.50;74.80
11387;DHT22;5748;53.102;8.456;2023-07-31T15:10:30;22.50;75.00
11387;DHT22;5748;53.102;8.456;2023-07-31T15:12:58;22.50;75.10
11387;DHT22;5748;53.102;8.456;2023-07-31T15:15:26;22.60;75.20
11387;DHT22;5748;53.102;8.456;2023-07-31T15:17:53;22.60;75.30
11387;DHT22;5748;53.102;8.456;2023-07-31T15:20:20;22.70;75.30
11387;DHT22;5748;53.102;8.456;2023-07-31T15:22:47;22.70;75.10
11387;DHT22;5748;53.102;8.456;2023-07-31T15:25:15;22.80;75.10
11387;DHT22;5748;53.102;8.456;2023-07-31T15:27:42;22.80;75.00
11387;DHT22;5748;53.102;8.456;2023-07-31T15:30:09;22.80;75.00
11387;DHT22;5748;53.102;8.456;2023-07-31T15:32:38;22.80;75.10
11387;DHT22;5748;53.102;8.456;2023-07-31T15:35:06;22.80;75.20
11387;DHT22;5748;53.102;8.456;2023-07-31T15:37:33;22.90;75.30
11387;DHT22;5748;53.102;8.456;2023-07-31T15:40:00;22.90;75.20
11387;DHT22;5748;53.102;8.456;2023-07-31T15:42:27;22.90;75.10
11387;DHT22;5748;53.102;8.456;2023-07-31T15:44:54;23.00;75.10
11387;DHT22;5748;53.102;8.456;2023-07-31T15:47:21;23.00;75.00
11387;DHT22;5748;53.102;8.456;2023-07-31T15:49:50;23.10;75.20